<?xml version="1.0" encoding="UTF-8" standalone="no" ?>
<gpx xmlns="http://www.topografix.com/GPX/1/1" xmlns:xsi="http://www.w3.org/2001/XMLSchema-instance" xsi:schemaLocation="http://www.topografix.com/GPX/1/1 http://www.topografix.com/GPX/1/1/gpx.xsd" version="1.1" creator="VisuGPX - https://www.visugpx.com">
  <metadata>
    <name>262011</name>
    <desc><![CDATA[Retour sur mon circuit]]></desc>
  </metadata>
  <trk>
    <name><![CDATA[ACTIVE LOG094203]]></name>
    <trkseg>
      <trkpt lat="48.38218" lon="-4.50656">
        <ele>4.793</ele>
        <time>2011-08-15T07:42:03Z</time>
      </trkpt>
      <trkpt lat="48.38229" lon="-4.50653">
        <ele>4.838</ele>
        <time>2011-08-15T07:42:29Z</time>
      </trkpt>
      <trkpt lat="48.38216" lon="-4.50654">
        <ele>10.738</ele>
        <time>2011-08-15T07:43:17Z</time>
      </trkpt>
      <trkpt lat="48.38216" lon="-4.50654">
        <ele>16.439</ele>
        <time>2011-08-15T07:43:19Z</time>
      </trkpt>
      <trkpt lat="48.38216" lon="-4.50654">
        <ele>21.616</ele>
        <time>2011-08-15T07:43:21Z</time>
      </trkpt>
      <trkpt lat="48.38216" lon="-4.50654">
        <ele>26.444</ele>
        <time>2011-08-15T07:43:23Z</time>
      </trkpt>
      <trkpt lat="48.38218" lon="-4.50653">
        <ele>31.278</ele>
        <time>2011-08-15T07:43:25Z</time>
      </trkpt>
      <trkpt lat="48.3822" lon="-4.50653">
        <ele>35.53</ele>
        <time>2011-08-15T07:43:27Z</time>
      </trkpt>
      <trkpt lat="48.38222" lon="-4.50653">
        <ele>39.651</ele>
        <time>2011-08-15T07:43:29Z</time>
      </trkpt>
      <trkpt lat="48.38223" lon="-4.50654">
        <ele>43.134</ele>
        <time>2011-08-15T07:43:31Z</time>
      </trkpt>
      <trkpt lat="48.38223" lon="-4.50654">
        <ele>46.393</ele>
        <time>2011-08-15T07:43:33Z</time>
      </trkpt>
      <trkpt lat="48.38222" lon="-4.50654">
        <ele>49.703</ele>
        <time>2011-08-15T07:43:35Z</time>
      </trkpt>
      <trkpt lat="48.38222" lon="-4.50655">
        <ele>54.047</ele>
        <time>2011-08-15T07:43:38Z</time>
      </trkpt>
      <trkpt lat="48.38223" lon="-4.50655">
        <ele>57.813</ele>
        <time>2011-08-15T07:43:41Z</time>
      </trkpt>
      <trkpt lat="48.38223" lon="-4.50655">
        <ele>61.257</ele>
        <time>2011-08-15T07:43:44Z</time>
      </trkpt>
      <trkpt lat="48.38223" lon="-4.50655">
        <ele>64.507</ele>
        <time>2011-08-15T07:43:47Z</time>
      </trkpt>
      <trkpt lat="48.38223" lon="-4.50655">
        <ele>67.622</ele>
        <time>2011-08-15T07:43:50Z</time>
      </trkpt>
      <trkpt lat="48.38222" lon="-4.50654">
        <ele>69.83</ele>
        <time>2011-08-15T07:43:53Z</time>
      </trkpt>
      <trkpt lat="48.38224" lon="-4.50654">
        <ele>72.432</ele>
        <time>2011-08-15T07:43:56Z</time>
      </trkpt>
      <trkpt lat="48.38224" lon="-4.50653">
        <ele>75.765</ele>
        <time>2011-08-15T07:44:01Z</time>
      </trkpt>
      <trkpt lat="48.38225" lon="-4.50653">
        <ele>78.978</ele>
        <time>2011-08-15T07:44:06Z</time>
      </trkpt>
      <trkpt lat="48.38224" lon="-4.50653">
        <ele>82.119</ele>
        <time>2011-08-15T07:44:12Z</time>
      </trkpt>
      <trkpt lat="48.38225" lon="-4.50652">
        <ele>84.075</ele>
        <time>2011-08-15T07:44:17Z</time>
      </trkpt>
      <trkpt lat="48.38222" lon="-4.50648">
        <ele>87.031</ele>
        <time>2011-08-15T07:44:28Z</time>
      </trkpt>
      <trkpt lat="48.3822" lon="-4.50648">
        <ele>90.099</ele>
        <time>2011-08-15T07:44:37Z</time>
      </trkpt>
      <trkpt lat="48.38219" lon="-4.50645">
        <ele>91.603</ele>
        <time>2011-08-15T07:44:45Z</time>
      </trkpt>
      <trkpt lat="48.38211" lon="-4.50637">
        <ele>88.004</ele>
        <time>2011-08-15T07:44:53Z</time>
      </trkpt>
      <trkpt lat="48.38211" lon="-4.50637">
        <ele>91.061</ele>
        <time>2011-08-15T07:44:55Z</time>
      </trkpt>
      <trkpt lat="48.38216" lon="-4.50642">
        <ele>94.371</ele>
        <time>2011-08-15T07:45:16Z</time>
      </trkpt>
    </trkseg>
  </trk>
</gpx>